sensor_id;sensor_type;location;lat;lon;timestamp;pressure;altitude;pressure_sealevel;temperature;humidity
70254;BME280;57649;42.968;1.608;2022-08-19T00:01:48;97653.75;;;17.66;83.35
70254;BME280;57649;42.968;1.608;2022-08-19T00:04:15;97652.47;;;17.82;80.67
70254;BME280;57649;42.968;1.608;2022-08-19T00:06:43;97659.75;;;17.75;81.74
70254;BME280;57649;42.968;1.608;2022-08-19T00:09:11;97654.59;;;17.73;81.02
70254;BME280;57649;42.968;1.608;2022-08-19T00:11:38;97657.47;;;17.78;81.44
70254;BME280;57649;42.968;1.608;2022-08-19T00:14:07;97646.47;;;17.73;79.97
70254;BME280;57649;42.968;1.608;2022-08-19T00:16:34;97657.50;;;17.72;79.80
70254;BME280;57649;42.968;1.608;2022-08-19T00:18:59;97657.91;;;17.68;79.96
70254;BME280;57649;42.968;1.608;2022-08-19T00:21:26;97655.59;;;17.65;80.79
70254;BME280;57649;42.968;1.608;2022-08-19T00:23:52;97662.28;;;17.63;80.07
70254;BME280;57649;42.968;1.608;2022-08-19T00:26:18;97648.94;;;17.61;79.38
70254;BME280;57649;42.968;1.608;2022-08-19T00:28:43;97637.91;;;17.63;80.31
70254;BME280;57649;42.968;1.608;2022-08-19T00:31:09;97647.06;;;17.62;81.47
70254;BME280;57649;42.968;1.608;2022-08-19T00:33:35;97641.44;;;17.63;80.48
70254;BME280;57649;42.968;1.608;2022-08-19T00:36:02;97649.97;;;17.54;81.42
70254;BME280;57649;42.968;1.608;2022-08-19T00:38:30;97646.44;;;17.46;83.53
70254;BME280;57649;42.968;1.608;2022-08-19T00:40:55;97646.03;;;17.49;83.85
70254;BME280;57649;42.968;1.608;2022-08-19T00:43:23;97644.56;;;17.40;83.85
70254;BME280;57649;42.968;1.608;2022-08-19T00:45:50;97643.94;;;17.38;81.65
70254;BME280;57649;42.968;1.608;2022-08-19T00:48:17;97647.84;;;17.36;82.41
70254;BME280;57649;42.968;1.608;2022-08-19T00:50:44;97652.44;;;17.35;80.54
70254;BME280;57649;42.968;1.608;2022-08-19T00:53:12;97650.38;;;17.44;82.48
70254;BME280;57649;42.968;1.608;2022-08-19T00:55:40;97643.72;;;17.46;80.04
70254;BME280;57649;42.968;1.608;2022-08-19T00:58:10;97651.63;;;17.55;79.81
70254;BME280;57649;42.968;1.608;2022-08-19T01:00:38;97653.28;;;17.42;78.48
70254;BME280;57649;42.968;1.608;2022-08-19T01:03:12;97648.72;;;17.49;79.41
70254;BME280;57649;42.968;1.608;2022-08-19T01:05:39;97652.66;;;17.40;78.39
70254;BME280;57649;42.968;1.608;2022-08-19T01:08:07;97643.28;;;17.36;81.72
70254;BME280;57649;42.968;1.608;2022-08-19T01:10:40;97643.06;;;17.38;81.68
70254;BME280;57649;42.968;1.608;2022-08-19T01:13:07;97654.53;;;17.33;79.88
70254;BME280;57649;42.968;1.608;2022-08-19T01:15:38;97657.00;;;17.28;79.90
70254;BME280;57649;42.968;1.608;2022-08-19T01:18:08;97658.88;;;17.27;80.23
70254;BME280;57649;42.968;1.608;2022-08-19T01:20:34;97654.94;;;17.30;80.07
70254;BME280;57649;42.968;1.608;2022-08-19T01:23:00;97652.03;;;17.31;80.62
70254;BME280;57649;42.968;1.608;2022-08-19T01:25:34;97647.44;;;17.32;81.56
70254;BME280;57649;42.968;1.608;2022-08-19T01:28:01;97651.19;;;17.31;81.30
70254;BME280;57649;42.968;1.608;2022-08-19T01:30:30;97649.53;;;17.30;80.88
70254;BME280;57649;42.968;1.608;2022-08-19T01:32:57;97647.66;;;17.24;81.33
70254;BME280;57649;42.968;1.608;2022-08-19T01:35:24;97653.91;;;17.31;80.72
70254;BME280;57649;42.968;1.608;2022-08-19T01:37:59;97657.63;;;17.30;80.65
70254;BME280;57649;42.968;1.608;2022-08-19T01:40:30;97651.19;;;17.31;81.03
70254;BME280;57649;42.968;1.608;2022-08-19T01:42:57;97662.81;;;17.25;81.64
70254;BME280;57649;42.968;1.608;2022-08-19T01:45:24;97653.91;;;17.31;81.23
70254;BME280;57649;42.968;1.608;2022-08-19T01:47:50;97647.84;;;17.29;81.18
70254;BME280;57649;42.968;1.608;2022-08-19T01:50:16;97640.38;;;17.31;81.83
70254;BME280;57649;42.968;1.608;2022-08-19T01:52:42;97631.63;;;17.36;81.65
70254;BME280;57649;42.968;1.608;2022-08-19T01:55:12;97635.38;;;17.35;80.96
70254;BME280;57649;42.968;1.608;2022-08-19T01:57:39;97633.69;;;17.27;82.01
70254;BME280;57649;42.968;1.608;2022-08-19T02:00:10;97642.00;;;17.25;80.81
70254;BME280;57649;42.968;1.608;2022-08-19T02:02:36;97638.66;;;17.23;81.27
70254;BME280;57649;42.968;1.608;2022-08-19T02:05:02;97639.53;;;17.24;81.65
70254;BME280;57649;42.968;1.608;2022-08-19T02:07:27;97639.53;;;17.24;81.63
70254;BME280;57649;42.968;1.608;2022-08-19T02:09:53;97641.19;;;17.25;80.57
70254;BME280;57649;42.968;1.608;2022-08-19T02:12:20;97641.63;;;17.35;82.18
70254;BME280;57649;42.968;1.608;2022-08-19T02:14:46;97641.84;;;17.40;81.31
70254;BME280;57649;42.968;1.608;2022-08-19T02:17:11;97645.81;;;17.44;80.98
70254;BME280;57649;42.968;1.608;2022-08-19T02:19:37;97643.69;;;17.40;82.19
70254;BME280;57649;42.968;1.608;2022-08-19T02:22:02;97649.34;;;17.38;81.04
70254;BME280;57649;42.968;1.608;2022-08-19T02:24:29;97652.88;;;17.45;81.59
70254;BME280;57649;42.968;1.608;2022-08-19T02:26:54;97644.13;;;17.43;84.40
70254;BME280;57649;42.968;1.608;2022-08-19T02:29:20;97648.28;;;17.39;85.01
70254;BME280;57649;42.968;1.608;2022-08-19T02:31:46;97644.94;;;17.30;85.24
70254;BME280;57649;42.968;1.608;2022-08-19T02:34:11;97650.34;;;17.24;86.21
70254;BME280;57649;42.968;1.608;2022-08-19T02:36:37;97644.91;;;17.17;84.82
70254;BME280;57649;42.968;1.608;2022-08-19T02:39:02;97658.41;;;17.10;86.05
70254;BME280;57649;42.968;1.608;2022-08-19T02:41:30;97663.34;;;16.93;89.31
70254;BME280;57649;42.968;1.608;2022-08-19T02:43:58;97665.25;;;17.06;87.20
70254;BME280;57649;42.968;1.608;2022-08-19T02:46:28;97656.13;;;17.07;87.47
70254;BME280;57649;42.968;1.608;2022-08-19T02:48:57;97659.88;;;17.20;87.70
70254;BME280;57649;42.968;1.608;2022-08-19T02:51:27;97671.06;;;17.03;88.11
70254;BME280;57649;42.968;1.608;2022-08-19T02:53:54;97678.16;;;17.04;89.58
70254;BME280;57649;42.968;1.608;2022-08-19T02:56:20;97672.13;;;17.02;89.73
70254;BME280;57649;42.968;1.608;2022-08-19T02:58:47;97666.72;;;17.02;88.59
70254;BME280;57649;42.968;1.608;2022-08-19T03:01:41;97676.03;;;16.93;88.05
70254;BME280;57649;42.968;1.608;2022-08-19T03:04:06;97670.41;;;16.88;89.30
70254;BME280;57649;42.968;1.608;2022-08-19T03:06:36;97669.59;;;16.94;88.60
70254;BME280;57649;42.968;1.608;2022-08-19T03:09:02;97666.81;;;16.81;90.23
70254;BME280;57649;42.968;1.608;2022-08-19T03:11:30;97677.25;;;16.90;91.81
70254;BME280;57649;42.968;1.608;2022-08-19T03:13:57;97665.19;;;16.86;90.67
70254;BME280;57649;42.968;1.608;2022-08-19T03:16:24;97682.25;;;16.87;90.41
70254;BME280;57649;42.968;1.608;2022-08-19T03:18:51;97678.44;;;16.81;90.09
70254;BME280;57649;42.968;1.608;2022-08-19T03:21:18;97687.25;;;16.83;89.78
70254;BME280;57649;42.968;1.608;2022-08-19T03:23:44;97686.03;;;16.92;89.33
70254;BME280;57649;42.968;1.608;2022-08-19T03:26:10;97685.38;;;16.90;91.85
70254;BME280;57649;42.968;1.608;2022-08-19T03:28:35;97684.31;;;16.85;93.60
70254;BME280;57649;42.968;1.608;2022-08-19T03:31:09;97688.06;;;16.84;93.93
70254;BME280;57649;42.968;1.608;2022-08-19T03:33:35;97692.97;;;16.73;93.83
70254;BME280;57649;42.968;1.608;2022-08-19T03:36:16;97690.88;;;16.69;92.52
70254;BME280;57649;42.968;1.608;2022-08-19T03:38:48;97691.06;;;16.67;90.30
70254;BME280;57649;42.968;1.608;2022-08-19T03:41:16;97699.13;;;16.54;95.14
70254;BME280;57649;42.968;1.608;2022-08-19T03:43:42;97694.53;;;16.54;95.12
70254;BME280;57649;42.968;1.608;2022-08-19T03:46:11;97698.47;;;16.52;94.68
70254;BME280;57649;42.968;1.608;2022-08-19T03:48:38;97697.25;;;16.61;95.55
70254;BME280;57649;42.968;1.608;2022-08-19T03:51:05;97705.78;;;16.58;94.70
70254;BME280;57649;42.968;1.608;2022-08-19T03:53:33;97701.00;;;16.60;94.57
70254;BME280;57649;42.968;1.608;2022-08-19T03:56:00;97709.88;;;16.47;94.78
70254;BME280;57649;42.968;1.608;2022-08-19T03:58:27;97712.19;;;16.50;98.36
70254;BME280;57649;42.968;1.608;2022-08-19T04:00:57;97710.00;;;16.39;95.08
70254;BME280;57649;42.968;1.608;2022-08-19T04:03:24;97713.88;;;16.23;93.61
70254;BME280;57649;42.968;1.608;2022-08-19T04:05:52;97710.25;;;16.38;94.31
70254;BME280;57649;42.968;1.608;2022-08-19T04:08:18;97718.22;;;16.52;93.74
70254;BME280;57649;42.968;1.608;2022-08-19T04:10:49;97716.91;;;16.42;95.89
70254;BME280;57649;42.968;1.608;2022-08-19T04:13:18;97724.41;;;16.46;96.43
70254;BME280;57649;42.968;1.608;2022-08-19T04:15:45;97729.53;;;16.34;95.71
70254;BME280;57649;42.968;1.608;2022-08-19T04:18:12;97727.84;;;16.33;95.33
70254;BME280;57649;42.968;1.608;2022-08-19T04:20:43;97720.59;;;16.34;97.13
70254;BME280;57649;42.968;1.608;2022-08-19T04:23:09;97721.25;;;16.36;96.22
70254;BME280;57649;42.968;1.608;2022-08-19T04:25:43;97722.91;;;16.37;97.40
70254;BME280;57649;42.968;1.608;2022-08-19T04:28:10;97721.25;;;16.36;97.80
70254;BME280;57649;42.968;1.608;2022-08-19T04:30:45;97730.09;;;16.23;97.74
70254;BME280;57649;42.968;1.608;2022-08-19T04:33:12;97735.06;;;16.26;96.85
70254;BME280;57649;42.968;1.608;2022-08-19T04:35:40;97738.84;;;16.32;97.14
70254;BME280;57649;42.968;1.608;2022-08-19T04:38:07;97743.84;;;16.28;97.09
70254;BME280;57649;42.968;1.608;2022-08-19T04:40:34;97740.47;;;16.26;98.61
70254;BME280;57649;42.968;1.608;2022-08-19T04:43:18;97733.66;;;16.30;100.00
70254;BME280;57649;42.968;1.608;2022-08-19T04:45:45;97738.66;;;16.33;99.24
70254;BME280;57649;42.968;1.608;2022-08-19T04:48:11;97742.16;;;16.27;99.65
70254;BME280;57649;42.968;1.608;2022-08-19T04:50:40;97738.63;;;16.27;99.67
70254;BME280;57649;42.968;1.608;2022-08-19T04:53:07;97744.22;;;16.25;94.38
70254;BME280;57649;42.968;1.608;2022-08-19T04:55:32;97751.38;;;16.11;96.62
70254;BME280;57649;42.968;1.608;2022-08-19T04:57:58;97745.53;;;16.08;94.85
70254;BME280;57649;42.968;1.608;2022-08-19T05:00:24;97743.47;;;16.10;92.65
70254;BME280;57649;42.968;1.608;2022-08-19T05:02:50;97745.78;;;16.13;93.05
70254;BME280;57649;42.968;1.608;2022-08-19T05:05:15;97749.31;;;16.13;95.18
70254;BME280;57649;42.968;1.608;2022-08-19T05:07:41;97755.94;;;16.11;91.68
70254;BME280;57649;42.968;1.608;2022-08-19T05:10:07;97757.22;;;16.15;93.10
70254;BME280;57649;42.968;1.608;2022-08-19T05:12:33;97764.44;;;16.08;94.02
70254;BME280;57649;42.968;1.608;2022-08-19T05:14:59;97776.09;;;16.08;95.11
70254;BME280;57649;42.968;1.608;2022-08-19T05:17:26;97762.25;;;16.18;93.80
70254;BME280;57649;42.968;1.608;2022-08-19T05:19:52;97762.31;;;16.25;93.52
70254;BME280;57649;42.968;1.608;2022-08-19T05:22:36;97770.59;;;16.23;95.87
70254;BME280;57649;42.968;1.608;2022-08-19T05:25:08;97765.94;;;16.39;96.92
70254;BME280;57649;42.968;1.608;2022-08-19T05:27:34;97764.72;;;16.41;94.41
70254;BME280;57649;42.968;1.608;2022-08-19T05:30:00;97771.78;;;16.42;95.46
70254;BME280;57649;42.968;1.608;2022-08-19T05:32:27;97775.72;;;16.40;95.97
70254;BME280;57649;42.968;1.608;2022-08-19T05:34:52;97770.31;;;16.40;95.48
70254;BME280;57649;42.968;1.608;2022-08-19T05:37:18;97783.31;;;16.29;94.63
70254;BME280;57649;42.968;1.608;2022-08-19T05:39:43;97779.34;;;16.25;93.48
70254;BME280;57649;42.968;1.608;2022-08-19T05:42:11;97774.94;;;16.24;93.32
70254;BME280;57649;42.968;1.608;2022-08-19T05:44:39;97776.34;;;16.42;90.83
70254;BME280;57649;42.968;1.608;2022-08-19T05:47:10;97784.59;;;16.33;94.13
70254;BME280;57649;42.968;1.608;2022-08-19T05:49:36;97783.19;;;16.38;91.25
70254;BME280;57649;42.968;1.608;2022-08-19T05:52:04;97793.31;;;16.35;91.08
70254;BME280;57649;42.968;1.608;2022-08-19T05:54:30;97783.81;;;16.40;93.01
70254;BME280;57649;42.968;1.608;2022-08-19T05:56:56;97785.81;;;16.31;94.62
70254;BME280;57649;42.968;1.608;2022-08-19T05:59:22;97788.00;;;16.42;90.07
70254;BME280;57649;42.968;1.608;2022-08-19T06:01:49;97786.53;;;16.40;92.43
70254;BME280;57649;42.968;1.608;2022-08-19T06:04:20;97785.97;;;16.51;91.66
70254;BME280;57649;42.968;1.608;2022-08-19T06:06:47;97787.25;;;16.55;93.16
70254;BME280;57649;42.968;1.608;2022-08-19T06:09:13;97798.00;;;16.77;92.63
70254;BME280;57649;42.968;1.608;2022-08-19T06:11:45;97797.81;;;16.78;94.23
70254;BME280;57649;42.968;1.608;2022-08-19T06:14:13;97808.81;;;16.77;95.77
70254;BME280;57649;42.968;1.608;2022-08-19T06:16:41;97810.28;;;16.79;96.93
70254;BME280;57649;42.968;1.608;2022-08-19T06:19:09;97801.53;;;16.70;95.36
70254;BME280;57649;42.968;1.608;2022-08-19T06:21:37;97802.53;;;16.69;96.50
70254;BME280;57649;42.968;1.608;2022-08-19T06:24:05;97797.13;;;16.69;96.06
70254;BME280;57649;42.968;1.608;2022-08-19T06:26:34;97788.66;;;16.79;96.80
70254;BME280;57649;42.968;1.608;2022-08-19T06:28:59;97807.78;;;16.78;94.58
70254;BME280;57649;42.968;1.608;2022-08-19T06:31:27;97804.41;;;16.69;93.75
70254;BME280;57649;42.968;1.608;2022-08-19T06:33:53;97808.19;;;16.74;89.20
70254;BME280;57649;42.968;1.608;2022-08-19T06:36:27;97798.72;;;16.85;87.97
70254;BME280;57649;42.968;1.608;2022-08-19T06:38:57;97805.41;;;16.89;90.48
70254;BME280;57649;42.968;1.608;2022-08-19T06:41:25;97809.56;;;16.92;89.89
70254;BME280;57649;42.968;1.608;2022-08-19T06:43:52;97809.81;;;16.97;91.86
70254;BME280;57649;42.968;1.608;2022-08-19T06:46:17;97819.00;;;17.03;91.62
70254;BME280;57649;42.968;1.608;2022-08-19T06:48:45;97815.53;;;17.16;94.75
70254;BME280;57649;42.968;1.608;2022-08-19T06:51:11;97815.91;;;17.12;92.64
70254;BME280;57649;42.968;1.608;2022-08-19T06:53:37;97812.25;;;17.20;92.98
70254;BME280;57649;42.968;1.608;2022-08-19T06:56:04;97822.28;;;17.33;92.23
70254;BME280;57649;42.968;1.608;2022-08-19T06:58:30;97809.44;;;17.48;88.79
70254;BME280;57649;42.968;1.608;2022-08-19T07:01:02;97818.88;;;17.66;90.91
70254;BME280;57649;42.968;1.608;2022-08-19T07:03:32;97821.59;;;17.66;90.38
70254;BME280;57649;42.968;1.608;2022-08-19T07:06:03;97823.69;;;17.70;90.66
70254;BME280;57649;42.968;1.608;2022-08-19T07:08:29;97822.03;;;17.76;86.60
70254;BME280;57649;42.968;1.608;2022-08-19T07:10:54;97824.09;;;17.74;87.61
70254;BME280;57649;42.968;1.608;2022-08-19T07:13:20;97827.88;;;17.73;90.47
70254;BME280;57649;42.968;1.608;2022-08-19T07:15:47;97827.44;;;17.76;87.79
70254;BME280;57649;42.968;1.608;2022-08-19T07:18:12;97818.25;;;17.64;82.74
70254;BME280;57649;42.968;1.608;2022-08-19T07:20:39;97826.34;;;17.57;86.70
70254;BME280;57649;42.968;1.608;2022-08-19T07:23:05;97820.06;;;17.50;81.89
70254;BME280;57649;42.968;1.608;2022-08-19T07:25:30;97831.47;;;17.39;81.24
70254;BME280;57649;42.968;1.608;2022-08-19T07:27:55;97827.38;;;17.49;81.46
70254;BME280;57649;42.968;1.608;2022-08-19T07:30:21;97833.84;;;17.55;81.26
70254;BME280;57649;42.968;1.608;2022-08-19T07:32:48;97831.91;;;17.49;83.39
70254;BME280;57649;42.968;1.608;2022-08-19T07:35:15;97839.00;;;17.50;83.41
70254;BME280;57649;42.968;1.608;2022-08-19T07:37:44;97834.50;;;17.64;82.96
70254;BME280;57649;42.968;1.608;2022-08-19T07:40:11;97836.34;;;17.57;81.00
70254;BME280;57649;42.968;1.608;2022-08-19T07:42:36;97842.09;;;17.40;82.16
70254;BME280;57649;42.968;1.608;2022-08-19T07:45:03;97841.63;;;17.30;83.04
70254;BME280;57649;42.968;1.608;2022-08-19T07:47:28;97836.69;;;17.40;83.31
70254;BME280;57649;42.968;1.608;2022-08-19T07:49:56;97842.78;;;17.56;82.61
70254;BME280;57649;42.968;1.608;2022-08-19T07:52:21;97834.06;;;17.67;83.89
70254;BME280;57649;42.968;1.608;2022-08-19T07:54:47;97825.94;;;17.67;82.40
70254;BME280;57649;42.968;1.608;2022-08-19T07:57:13;97824.50;;;17.71;82.47
70254;BME280;57649;42.968;1.608;2022-08-19T07:59:38;97823.28;;;17.74;82.19
70254;BME280;57649;42.968;1.608;2022-08-19T08:02:05;97828.06;;;17.72;81.29
70254;BME280;57649;42.968;1.608;2022-08-19T08:04:31;97825.25;;;18.00;80.65
70254;BME280;57649;42.968;1.608;2022-08-19T08:07:15;97822.38;;;18.35;79.41
70254;BME280;57649;42.968;1.608;2022-08-19T08:09:59;97811.94;;;18.72;78.00
70254;BME280;57649;42.968;1.608;2022-08-19T08:12:32;97807.56;;;18.84;75.82
70254;BME280;57649;42.968;1.608;2022-08-19T08:15:00;97809.22;;;18.92;74.66
70254;BME280;57649;42.968;1.608;2022-08-19T08:17:30;97825.41;;;19.38;72.05
70254;BME280;57649;42.968;1.608;2022-08-19T08:19:56;97813.06;;;19.36;71.20
70254;BME280;57649;42.968;1.608;2022-08-19T08:22:23;97824.06;;;18.89;73.95
70254;BME280;57649;42.968;1.608;2022-08-19T08:25:13;97824.66;;;18.64;75.14
70254;BME280;57649;42.968;1.608;2022-08-19T08:27:41;97827.50;;;19.30;73.28
70254;BME280;57649;42.968;1.608;2022-08-19T08:30:13;97836.41;;;20.02;69.17
70254;BME280;57649;42.968;1.608;2022-08-19T08:32:40;97828.69;;;20.31;68.23
70254;BME280;57649;42.968;1.608;2022-08-19T08:35:09;97815.69;;;20.33;67.17
70254;BME280;57649;42.968;1.608;2022-08-19T08:37:35;97789.13;;;20.85;66.39
70254;BME280;57649;42.968;1.608;2022-08-19T08:40:33;97794.91;;;20.95;65.34
70254;BME280;57649;42.968;1.608;2022-08-19T08:42:59;97806.28;;;20.86;65.93
70254;BME280;57649;42.968;1.608;2022-08-19T08:45:30;97794.56;;;20.60;66.29
70254;BME280;57649;42.968;1.608;2022-08-19T08:48:02;97811.06;;;20.90;66.27
70254;BME280;57649;42.968;1.608;2022-08-19T08:50:33;97816.56;;;20.84;66.96
70254;BME280;57649;42.968;1.608;2022-08-19T08:53:02;97802.31;;;21.25;66.29
70254;BME280;57649;42.968;1.608;2022-08-19T08:55:30;97801.13;;;21.03;65.78
70254;BME280;57649;42.968;1.608;2022-08-19T09:00:38;97801.84;;;20.91;64.94
70254;BME280;57649;42.968;1.608;2022-08-19T09:03:10;97799.59;;;21.07;65.45
70254;BME280;57649;42.968;1.608;2022-08-19T09:06:00;97803.13;;;20.89;66.04
70254;BME280;57649;42.968;1.608;2022-08-19T09:08:43;97791.72;;;21.35;64.70
70254;BME280;57649;42.968;1.608;2022-08-19T09:14:32;97802.94;;;21.09;64.04
70254;BME280;57649;42.968;1.608;2022-08-19T09:17:00;97802.00;;;20.96;63.60
70254;BME280;57649;42.968;1.608;2022-08-19T09:19:29;97796.06;;;21.25;62.46
70254;BME280;57649;42.968;1.608;2022-08-19T09:21:54;97789.31;;;21.46;61.86
70254;BME280;57649;42.968;1.608;2022-08-19T09:24:20;97790.22;;;21.58;64.61
70254;BME280;57649;42.968;1.608;2022-08-19T09:26:46;97783.44;;;22.09;61.65
70254;BME280;57649;42.968;1.608;2022-08-19T09:29:12;97785.66;;;20.78;65.13
70254;BME280;57649;42.968;1.608;2022-08-19T09:31:38;97770.19;;;21.52;65.82
70254;BME280;57649;42.968;1.608;2022-08-19T09:34:03;97771.31;;;21.63;63.08
70254;BME280;57649;42.968;1.608;2022-08-19T09:36:33;97781.38;;;21.07;61.97
70254;BME280;57649;42.968;1.608;2022-08-19T09:39:02;97772.75;;;21.78;62.82
70254;BME280;57649;42.968;1.608;2022-08-19T09:41:28;97771.31;;;21.63;63.29
70254;BME280;57649;42.968;1.608;2022-08-19T09:43:55;97769.59;;;22.23;62.16
70254;BME280;57649;42.968;1.608;2022-08-19T09:46:23;97769.59;;;22.23;60.13
70254;BME280;57649;42.968;1.608;2022-08-19T09:48:49;97780.56;;;22.04;60.69
70254;BME280;57649;42.968;1.608;2022-08-19T09:51:26;97779.84;;;21.97;62.35
70254;BME280;57649;42.968;1.608;2022-08-19T09:53:54;97774.75;;;22.13;60.84
70254;BME280;57649;42.968;1.608;2022-08-19T09:56:21;97781.38;;;21.93;59.35
70254;BME280;57649;42.968;1.608;2022-08-19T09:58:47;97773.94;;;22.00;59.65
70254;BME280;57649;42.968;1.608;2022-08-19T10:01:31;97773.56;;;22.08;60.04
70254;BME280;57649;42.968;1.608;2022-08-19T10:03:58;97762.44;;;22.40;59.98
70254;BME280;57649;42.968;1.608;2022-08-19T10:06:27;97750.78;;;22.33;59.16
70254;BME280;57649;42.968;1.608;2022-08-19T10:08:55;97763.22;;;22.29;57.13
70254;BME280;57649;42.968;1.608;2022-08-19T10:11:20;97752.34;;;22.53;58.18
70254;BME280;57649;42.968;1.608;2022-08-19T10:13:46;97758.91;;;22.09;56.05
70254;BME280;57649;42.968;1.608;2022-08-19T10:16:18;97757.69;;;22.83;56.10
70254;BME280;57649;42.968;1.608;2022-08-19T10:18:45;97759.94;;;22.74;56.51
70254;BME280;57649;42.968;1.608;2022-08-19T10:21:18;97760.25;;;23.25;56.42
70254;BME280;57649;42.968;1.608;2022-08-19T10:23:45;97757.09;;;22.81;56.36
70254;BME280;57649;42.968;1.608;2022-08-19T10:26:14;97756.94;;;22.87;56.28
70254;BME280;57649;42.968;1.608;2022-08-19T10:28:40;97751.63;;;22.81;56.77
70254;BME280;57649;42.968;1.608;2022-08-19T10:31:08;97775.84;;;22.77;55.21
70254;BME280;57649;42.968;1.608;2022-08-19T10:33:35;97756.63;;;22.72;56.29
70254;BME280;57649;42.968;1.608;2022-08-19T10:36:17;97753.88;;;23.08;57.30
70254;BME280;57649;42.968;1.608;2022-08-19T10:38:44;97760.84;;;23.27;57.00
70254;BME280;57649;42.968;1.608;2022-08-19T10:41:14;97754.88;;;23.71;56.32
70254;BME280;57649;42.968;1.608;2022-08-19T10:43:41;97742.69;;;23.90;54.70
70254;BME280;57649;42.968;1.608;2022-08-19T10:46:09;97749.22;;;23.60;54.91
70254;BME280;57649;42.968;1.608;2022-08-19T10:48:35;97739.72;;;23.63;53.74
70254;BME280;57649;42.968;1.608;2022-08-19T10:51:01;97736.81;;;23.70;54.23
70254;BME280;57649;42.968;1.608;2022-08-19T10:53:45;97751.66;;;23.86;53.74
70254;BME280;57649;42.968;1.608;2022-08-19T10:56:10;97753.16;;;23.93;53.02
70254;BME280;57649;42.968;1.608;2022-08-19T10:58:54;97749.38;;;22.66;53.36
70254;BME280;57649;42.968;1.608;2022-08-19T11:01:21;97748.28;;;22.91;52.37
70254;BME280;57649;42.968;1.608;2022-08-19T11:03:47;97748.28;;;22.91;53.29
70254;BME280;57649;42.968;1.608;2022-08-19T11:06:12;97741.69;;;23.68;52.40
70254;BME280;57649;42.968;1.608;2022-08-19T11:08:39;97737.19;;;24.19;51.11
70254;BME280;57649;42.968;1.608;2022-08-19T11:11:06;97729.25;;;24.34;50.75
70254;BME280;57649;42.968;1.608;2022-08-19T11:13:34;97735.59;;;23.77;51.99
70254;BME280;57649;42.968;1.608;2022-08-19T11:16:04;97739.38;;;23.88;52.06
70254;BME280;57649;42.968;1.608;2022-08-19T11:18:34;97740.91;;;24.13;50.30
70254;BME280;57649;42.968;1.608;2022-08-19T11:21:25;97743.13;;;24.16;50.30
70254;BME280;57649;42.968;1.608;2022-08-19T11:23:53;97741.38;;;23.93;50.64
70254;BME280;57649;42.968;1.608;2022-08-19T11:26:21;97738.81;;;24.03;50.52
70254;BME280;57649;42.968;1.608;2022-08-19T11:28:47;97723.59;;;24.41;49.04
70254;BME280;57649;42.968;1.608;2022-08-19T11:31:24;97729.06;;;24.24;49.63
70254;BME280;57649;42.968;1.608;2022-08-19T11:33:49;97729.06;;;24.24;49.97
70254;BME280;57649;42.968;1.608;2022-08-19T11:36:21;97728.16;;;24.52;48.26
70254;BME280;57649;42.968;1.608;2022-08-19T11:38:48;97724.94;;;24.55;48.74
70254;BME280;57649;42.968;1.608;2022-08-19T11:41:15;97725.75;;;24.73;49.03
70254;BME280;57649;42.968;1.608;2022-08-19T11:43:41;97726.03;;;24.93;47.77
70254;BME280;57649;42.968;1.608;2022-08-19T11:46:08;97715.78;;;24.50;48.96
70254;BME280;57649;42.968;1.608;2022-08-19T11:48:35;97709.91;;;24.58;49.04
70254;BME280;57649;42.968;1.608;2022-08-19T11:51:04;97717.25;;;25.58;47.21
70254;BME280;57649;42.968;1.608;2022-08-19T11:53:32;97712.41;;;24.98;47.36
70254;BME280;57649;42.968;1.608;2022-08-19T11:55:57;97718.25;;;25.51;46.55
70254;BME280;57649;42.968;1.608;2022-08-19T11:58:23;97726.44;;;24.85;48.03
70254;BME280;57649;42.968;1.608;2022-08-19T12:00:50;97724.25;;;24.14;48.73
70254;BME280;57649;42.968;1.608;2022-08-19T12:03:16;97709.25;;;24.68;47.97
70254;BME280;57649;42.968;1.608;2022-08-19T12:05:42;97709.53;;;25.10;47.34
70254;BME280;57649;42.968;1.608;2022-08-19T12:08:08;97707.19;;;25.19;47.44
70254;BME280;57649;42.968;1.608;2022-08-19T12:10:34;97710.03;;;25.07;47.44
70254;BME280;57649;42.968;1.608;2022-08-19T12:13:00;97714.06;;;24.61;46.94
70254;BME280;57649;42.968;1.608;2022-08-19T12:15:26;97716.38;;;25.08;45.46
70254;BME280;57649;42.968;1.608;2022-08-19T12:17:53;97710.03;;;25.24;46.12
70254;BME280;57649;42.968;1.608;2022-08-19T12:20:22;97708.09;;;25.03;46.45
70254;BME280;57649;42.968;1.608;2022-08-19T12:22:48;97711.31;;;25.22;46.14
70254;BME280;57649;42.968;1.608;2022-08-19T12:25:14;97698.53;;;25.27;46.46
70254;BME280;57649;42.968;1.608;2022-08-19T12:27:40;97700.84;;;25.35;46.79
70254;BME280;57649;42.968;1.608;2022-08-19T12:30:07;97706.22;;;25.52;45.37
70254;BME280;57649;42.968;1.608;2022-08-19T12:32:34;97699.72;;;25.14;45.41
70254;BME280;57649;42.968;1.608;2022-08-19T12:34:59;97697.69;;;25.05;45.97
70254;BME280;57649;42.968;1.608;2022-08-19T12:37:25;97697.31;;;25.18;46.27
70254;BME280;57649;42.968;1.608;2022-08-19T12:39:50;97706.00;;;25.32;45.11
70254;BME280;57649;42.968;1.608;2022-08-19T12:42:16;97702.84;;;25.01;45.94
70254;BME280;57649;42.968;1.608;2022-08-19T12:44:43;97689.75;;;25.25;45.88
70254;BME280;57649;42.968;1.608;2022-08-19T12:47:10;97680.09;;;24.78;46.02
70254;BME280;57649;42.968;1.608;2022-08-19T12:49:37;97680.94;;;25.45;45.77
70254;BME280;57649;42.968;1.608;2022-08-19T12:52:05;97683.53;;;25.30;45.65
70254;BME280;57649;42.968;1.608;2022-08-19T12:54:33;97686.06;;;25.64;44.88
70254;BME280;57649;42.968;1.608;2022-08-19T12:56:59;97685.13;;;25.09;44.84
70254;BME280;57649;42.968;1.608;2022-08-19T12:59:25;97682.19;;;24.71;44.48
70254;BME280;57649;42.968;1.608;2022-08-19T13:01:51;97680.06;;;24.95;44.22
70254;BME280;57649;42.968;1.608;2022-08-19T13:04:16;97684.13;;;24.93;44.84
70254;BME280;57649;42.968;1.608;2022-08-19T13:06:42;97675.81;;;25.27;44.87
70254;BME280;57649;42.968;1.608;2022-08-19T13:09:08;97671.78;;;25.34;44.48
70254;BME280;57649;42.968;1.608;2022-08-19T13:11:34;97670.53;;;26.02;44.04